Little German, Pennsylvania
Current Conditions -  °F | °C
As of 6:56 AM on Monday 24 Nov 2014 (Local Time) from KCXY Reporting Station
Broken Clouds Broken Clouds  
Wind Chill: 65°   Ceiling: 2200
Heat Index: 65°   Visibility: 10mi
Dew Point: 59°   Wind: 17mph
Humidity: 81%   Direction: 180°S
Pressure: 29.61"   Gusts: 30mph
Location:  40.3632°N, 77.2671°W
Report Text: KCXY 241156Z AUTO 18015G26KT 10SM BKN022 BKN028 BKN033 18/15 A2961 RMK AO2 PK WND 17029/1145 SLP026 60030 70054 T01830150 10183 20094 53003
Loading
Personal Weather Stations






























Interactive Weather Map New forecast layout! Learn more

10-Day Weather Forecast

Advertisements
Track Severe Weather on mobile